createdAt,value
2019-04-29T00:01:22.857Z,98908.23
2019-04-29T00:03:52.639Z,98913.64
2019-04-29T00:06:22.494Z,98914.02
2019-04-29T00:08:52.198Z,98915.52
2019-04-29T00:11:22.057Z,98912.67
2019-04-29T00:13:51.935Z,98920.48
2019-04-29T00:16:39.515Z,98922.31
2019-04-29T00:19:09.067Z,98920.47
2019-04-29T00:21:40.688Z,98921.42
2019-04-29T00:24:10.409Z,98922.34
2019-04-29T00:26:40.099Z,98922.23
2019-04-29T00:29:09.712Z,98922.97
2019-04-29T00:31:39.426Z,98921.80
2019-04-29T00:34:09.047Z,98918.69
2019-04-29T00:36:40.393Z,98922.22
2019-04-29T00:39:09.952Z,98914.53
2019-04-29T00:41:45.155Z,98919.12
2019-04-29T00:44:16.550Z,98918.84
2019-04-29T00:46:46.598Z,98926.75
2019-04-29T00:49:16.208Z,98928.32
2019-04-29T00:51:45.834Z,98933.92
2019-04-29T00:54:20.032Z,98925.66
2019-04-29T00:56:48.846Z,98933.36
2019-04-29T00:59:18.526Z,98930.83
2019-04-29T01:01:48.462Z,98933.78
2019-04-29T01:04:18.384Z,98929.94
2019-04-29T01:06:48.069Z,98929.86
2019-04-29T01:09:17.848Z,98930.02
2019-04-29T01:11:47.467Z,98926.53
2019-04-29T01:14:17.086Z,98921.58
2019-04-29T01:16:46.797Z,98923.14
2019-04-29T01:19:16.407Z,98924.40
2019-04-29T01:21:46.053Z,98920.39
2019-04-29T01:24:15.659Z,98919.34
2019-04-29T01:26:49.947Z,98922.92
2019-04-29T01:29:23.116Z,98922.45
2019-04-29T01:31:52.776Z,98930.29
2019-04-29T01:34:24.034Z,98934.88
2019-04-29T01:36:53.741Z,98935.42
2019-04-29T01:39:25.071Z,98933.03
2019-04-29T01:41:59.029Z,98934.83
2019-04-29T01:44:30.282Z,98940.95
2019-04-29T01:46:59.947Z,98941.75
2019-04-29T01:49:29.558Z,98939.05
2019-04-29T01:51:59.179Z,98939.75
2019-04-29T01:54:28.821Z,98934.45
2019-04-29T01:56:58.448Z,98944.53
2019-04-29T01:59:28.093Z,98941.79
2019-04-29T02:01:57.704Z,98942.81
2019-04-29T02:04:27.339Z,98942.06
2019-04-29T02:06:56.954Z,98944.53
2019-04-29T02:09:30.909Z,98942.70
2019-04-29T02:12:00.768Z,98945.98
2019-04-29T02:14:30.481Z,98946.84
2019-04-29T02:17:00.095Z,98946.06
2019-04-29T02:19:29.745Z,98942.77
2019-04-29T02:22:09.620Z,98949.08
2019-04-29T02:24:50.039Z,98940.30
2019-04-29T02:27:19.725Z,98943.42
2019-04-29T02:29:49.336Z,98952.09
2019-04-29T02:32:18.987Z,98950.48
2019-04-29T02:34:48.692Z,98948.95
2019-04-29T02:37:19.968Z,98952.00
2019-04-29T02:39:51.293Z,98950.90
2019-04-29T02:42:38.566Z,98951.66
2019-04-29T02:45:19.825Z,98945.97
2019-04-29T02:47:49.611Z,98950.08
2019-04-29T02:50:19.981Z,98942.92
2019-04-29T02:52:49.623Z,98946.52
2019-04-29T02:55:20.950Z,98946.98
2019-04-29T02:57:52.237Z,98952.41
2019-04-29T03:00:26.342Z,98947.86
2019-04-29T03:03:00.664Z,98938.28
2019-04-29T03:05:32.135Z,98936.64
2019-04-29T03:08:02.193Z,98938.77
2019-04-29T03:10:31.832Z,98941.85
2019-04-29T03:13:01.494Z,98939.42
2019-04-29T03:15:33.831Z,98931.80
2019-04-29T03:18:03.641Z,98942.59
2019-04-29T03:20:44.087Z,98942.28
2019-04-29T03:23:15.338Z,98942.17
2019-04-29T03:25:44.986Z,98937.36
2019-04-29T03:28:14.600Z,98940.84
2019-04-29T03:30:44.269Z,98943.34
2019-04-29T03:33:14.097Z,98947.16
2019-04-29T03:35:43.753Z,98939.58
2019-04-29T03:38:13.449Z,98941.58
2019-04-29T03:40:43.149Z,98937.02
2019-04-29T03:43:12.836Z,98941.47
2019-04-29T03:45:42.519Z,98946.57
2019-04-29T03:48:12.164Z,98944.88
2019-04-29T03:50:41.780Z,98948.31
2019-04-29T03:53:11.418Z,98946.16
2019-04-29T03:55:41.037Z,98950.01
2019-04-29T03:58:10.687Z,98954.59
2019-04-29T04:00:44.142Z,98958.89
2019-04-29T04:03:22.806Z,98961.36
2019-04-29T04:05:56.838Z,98958.89
2019-04-29T04:08:28.087Z,98960.86
2019-04-29T04:10:57.722Z,98960.23
2019-04-29T04:13:28.275Z,98955.45
2019-04-29T04:15:57.892Z,98955.97
2019-04-29T04:18:29.162Z,98953.08
2019-04-29T04:20:58.865Z,98953.30
2019-04-29T04:23:28.604Z,98952.26
2019-04-29T04:25:58.206Z,98958.76
2019-04-29T04:28:27.822Z,98962.42
2019-04-29T04:30:57.472Z,98950.05
2019-04-29T04:33:27.104Z,98952.85
2019-04-29T04:35:56.735Z,98962.28
2019-04-29T04:38:26.366Z,98973.30
2019-04-29T04:41:03.486Z,98967.05
2019-04-29T04:43:33.169Z,98971.23
2019-04-29T04:46:02.888Z,98974.39
2019-04-29T04:48:32.569Z,98972.05
2019-04-29T04:51:02.240Z,98977.59
2019-04-29T04:53:31.931Z,98983.45
2019-04-29T04:56:02.168Z,98990.70
2019-04-29T04:58:31.776Z,98986.43
2019-04-29T05:01:01.444Z,98986.50
2019-04-29T05:03:31.048Z,98989.13
2019-04-29T05:06:00.662Z,98990.46
2019-04-29T05:08:30.302Z,98988.74
2019-04-29T05:10:59.926Z,98989.34
2019-04-29T05:13:29.586Z,98990.48
2019-04-29T05:15:59.203Z,98990.28
2019-04-29T05:18:28.846Z,98988.55
2019-04-29T05:20:58.539Z,98996.17
2019-04-29T05:23:28.190Z,99000.07
2019-04-29T05:25:57.800Z,98998.64
2019-04-29T05:28:27.443Z,98996.69
2019-04-29T05:30:57.059Z,99007.70
2019-04-29T05:33:26.887Z,99009.27
2019-04-29T05:36:01.924Z,99007.09
2019-04-29T05:38:42.350Z,99004.63
2019-04-29T05:41:11.959Z,99008.73
2019-04-29T05:43:43.207Z,99007.20
2019-04-29T05:46:21.741Z,99014.88
2019-04-29T05:48:52.124Z,99012.93
2019-04-29T05:51:29.143Z,99009.45
2019-04-29T05:54:03.083Z,99021.31
2019-04-29T05:56:32.788Z,99023.45
2019-04-29T05:59:02.401Z,99023.64
2019-04-29T06:01:32.036Z,99021.20
2019-04-29T06:04:01.744Z,99022.34
2019-04-29T06:06:31.434Z,99020.88
2019-04-29T06:09:01.054Z,99027.64
2019-04-29T06:11:30.740Z,99028.22
2019-04-29T06:14:00.392Z,99020.09
2019-04-29T06:16:30.050Z,99020.09
2019-04-29T06:19:00.416Z,99019.77
2019-04-29T06:21:31.087Z,99016.33
2019-04-29T06:24:04.362Z,99030.69
2019-04-29T06:26:32.121Z,99036.23
2019-04-29T06:29:01.779Z,99033.69
2019-04-29T06:31:31.398Z,99034.59
2019-04-29T06:34:05.167Z,99032.86
2019-04-29T06:36:32.463Z,99037.23
2019-04-29T06:39:02.102Z,99038.15
2019-04-29T06:41:31.731Z,99040.57
2019-04-29T06:44:06.717Z,99040.57
2019-04-29T06:46:32.806Z,99044.34
2019-04-29T06:49:10.212Z,99046.77
2019-04-29T06:51:33.877Z,99045.95
2019-04-29T06:54:03.500Z,99045.17
2019-04-29T06:56:33.138Z,99043.20
2019-04-29T06:59:02.828Z,99041.03
2019-04-29T07:01:33.130Z,99039.34
2019-04-29T07:04:03.814Z,99041.41
2019-04-29T07:06:33.525Z,99045.30
2019-04-29T07:09:03.208Z,99043.30
2019-04-29T07:11:36.496Z,99042.94
2019-04-29T07:14:04.330Z,99040.27
2019-04-29T07:16:34.047Z,99043.31
2019-04-29T07:19:03.798Z,99043.14
2019-04-29T07:21:33.429Z,99052.58
2019-04-29T07:24:03.070Z,99050.06
2019-04-29T07:26:32.693Z,99043.84
2019-04-29T07:29:02.331Z,99041.48
2019-04-29T07:31:33.250Z,99042.42
2019-04-29T07:34:03.327Z,99039.18
2019-04-29T07:36:32.936Z,99030.97
2019-04-29T07:39:02.586Z,99033.17
2019-04-29T07:41:32.199Z,99035.31
2019-04-29T07:44:01.836Z,99027.06
2019-04-29T07:46:56.078Z,99034.66
2019-04-29T07:49:17.326Z,99028.30
2019-04-29T07:51:47.856Z,99027.59
2019-04-29T07:54:17.687Z,99019.44
2019-04-29T07:56:47.411Z,99019.74
2019-04-29T07:59:17.086Z,99016.34
2019-04-29T08:01:46.797Z,99013.59
2019-04-29T08:04:16.407Z,99013.08
2019-04-29T08:06:46.589Z,99006.63
2019-04-29T08:09:16.443Z,99009.95
2019-04-29T08:11:47.593Z,99007.80
2019-04-29T08:14:19.255Z,99000.89
2019-04-29T08:16:48.897Z,99005.00
2019-04-29T08:19:18.507Z,99003.42
2019-04-29T08:21:49.746Z,99005.27
2019-04-29T08:24:19.496Z,99002.58
2019-04-29T08:26:49.152Z,99002.18
2019-04-29T08:29:18.771Z,99006.98
2019-04-29T08:31:51.936Z,99005.63
2019-04-29T08:34:23.110Z,99005.96
2019-04-29T08:36:51.133Z,99002.64
2019-04-29T08:39:20.755Z,99009.33
2019-04-29T08:41:50.414Z,99007.79
2019-04-29T08:44:21.757Z,99007.63
2019-04-29T08:46:53.014Z,99003.14
2019-04-29T08:49:22.667Z,98998.05
2019-04-29T08:51:52.294Z,99003.11
2019-04-29T08:54:22.013Z,99007.97
2019-04-29T08:57:02.917Z,98996.64
2019-04-29T08:59:24.424Z,99008.73
2019-04-29T09:01:54.425Z,99011.44
2019-04-29T09:04:24.075Z,99008.52
2019-04-29T09:06:53.867Z,99006.56
2019-04-29T09:09:29.230Z,99004.00
2019-04-29T09:11:54.943Z,99006.31
2019-04-29T09:14:24.619Z,99011.97
2019-04-29T09:16:54.319Z,99004.30
2019-04-29T09:19:23.948Z,99007.66
2019-04-29T09:21:55.239Z,99000.37
2019-04-29T09:24:24.861Z,99000.97
2019-04-29T09:27:11.947Z,99002.06
2019-04-29T09:29:41.642Z,98993.31
2019-04-29T09:32:11.368Z,98992.45
2019-04-29T09:34:40.991Z,98992.52
2019-04-29T09:37:10.644Z,98989.09
2019-04-29T09:39:43.664Z,98986.34
2019-04-29T09:42:18.292Z,98984.22
2019-04-29T09:45:02.792Z,98976.77
2019-04-29T09:47:32.909Z,98977.61
2019-04-29T09:50:02.724Z,98969.84
2019-04-29T09:52:32.409Z,98963.67
2019-04-29T09:55:03.964Z,98967.43
2019-04-29T09:57:33.543Z,98969.45
2019-04-29T10:00:14.871Z,98965.73
2019-04-29T10:02:46.136Z,98960.64
2019-04-29T10:05:33.948Z,98962.93
2019-04-29T10:08:03.739Z,98955.65
2019-04-29T10:10:37.121Z,98959.09
2019-04-29T10:13:06.041Z,98946.88
2019-04-29T10:15:40.323Z,98950.72
2019-04-29T10:18:25.142Z,98944.34
2019-04-29T10:20:55.974Z,98947.47
2019-04-29T10:23:25.669Z,98940.09
2019-04-29T10:25:55.309Z,98939.60
2019-04-29T10:28:24.938Z,98936.30
2019-04-29T10:30:54.594Z,98934.77
2019-04-29T10:33:25.024Z,98928.13
2019-04-29T10:35:54.647Z,98917.69
2019-04-29T10:38:24.464Z,98919.65
2019-04-29T10:41:00.673Z,98917.52
2019-04-29T10:43:49.387Z,98911.04
2019-04-29T10:46:37.869Z,98914.93
2019-04-29T10:49:25.814Z,98913.69
2019-04-29T10:51:57.949Z,98904.88
2019-04-29T10:54:28.707Z,98905.69
2019-04-29T10:56:58.667Z,98910.65
2019-04-29T10:59:36.107Z,98904.95
2019-04-29T11:02:15.869Z,98904.02
2019-04-29T11:04:47.392Z,98902.63
2019-04-29T11:07:23.079Z,98903.64
2019-04-29T11:09:54.461Z,98895.19
2019-04-29T11:12:24.154Z,98892.94
2019-04-29T11:14:53.845Z,98882.26
2019-04-29T11:17:25.273Z,98882.98
2019-04-29T11:19:55.501Z,98881.13
2019-04-29T11:22:26.859Z,98876.61
2019-04-29T11:25:01.173Z,98871.86
2019-04-29T11:27:31.765Z,98870.06
2019-04-29T11:30:02.974Z,98869.38
2019-04-29T11:32:35.037Z,98865.91
2019-04-29T11:35:08.317Z,98868.21
2019-04-29T11:37:38.043Z,98849.86
2019-04-29T11:40:08.372Z,98852.88
2019-04-29T11:42:41.613Z,98842.16
2019-04-29T11:45:13.267Z,98846.89
2019-04-29T11:47:41.399Z,98854.31
2019-04-29T11:50:13.646Z,98842.22
2019-04-29T11:52:43.497Z,98835.82
2019-04-29T11:55:17.952Z,98839.16
2019-04-29T11:57:46.872Z,98841.45
2019-04-29T12:00:26.145Z,98838.03
2019-04-29T12:02:57.502Z,98839.18
2019-04-29T12:05:28.897Z,98835.67
2019-04-29T12:07:58.857Z,98831.64
2019-04-29T12:10:28.753Z,98836.48
2019-04-29T12:13:00.039Z,98836.17
2019-04-29T12:15:31.371Z,98824.22
2019-04-29T12:18:05.175Z,98834.94
2019-04-29T12:20:42.230Z,98833.84
2019-04-29T12:23:15.729Z,98834.51
2019-04-29T12:25:43.634Z,98834.55
2019-04-29T12:28:19.166Z,98822.41
2019-04-29T12:30:46.416Z,98832.41
2019-04-29T12:33:17.703Z,98825.71
2019-04-29T12:35:51.927Z,98825.09
2019-04-29T12:38:39.399Z,98816.14
2019-04-29T12:41:03.263Z,98823.92
2019-04-29T12:43:53.582Z,98820.20
2019-04-29T12:46:35.862Z,98813.53
2019-04-29T12:49:08.515Z,98813.59
2019-04-29T12:51:37.280Z,98807.43
2019-04-29T12:54:07.005Z,98822.56
2019-04-29T12:56:38.273Z,98810.03
2019-04-29T12:59:08.370Z,98814.91
2019-04-29T13:01:51.281Z,98810.64
2019-04-29T13:04:36.297Z,98813.14
2019-04-29T13:07:26.331Z,98804.80
2019-04-29T13:09:57.593Z,98802.65
2019-04-29T13:12:30.274Z,98804.57
2019-04-29T13:15:16.614Z,98804.56
2019-04-29T13:18:02.359Z,98801.88
2019-04-29T13:20:20.368Z,98803.22
2019-04-29T13:22:50.014Z,98802.63
2019-04-29T13:25:20.826Z,98805.08
2019-04-29T13:27:50.713Z,98795.88
2019-04-29T13:30:20.849Z,98793.62
2019-04-29T13:32:50.496Z,98797.35
2019-04-29T13:35:20.387Z,98790.59
2019-04-29T13:37:50.043Z,98784.44
2019-04-29T13:40:21.095Z,98786.66
2019-04-29T13:42:51.058Z,98783.14
2019-04-29T13:45:26.409Z,98782.39
2019-04-29T13:47:55.942Z,98772.89
2019-04-29T13:50:43.114Z,98778.59
2019-04-29T13:53:16.561Z,98778.05
2019-04-29T13:55:50.234Z,98773.70
2019-04-29T13:58:15.634Z,98771.25
2019-04-29T14:00:55.612Z,98774.56
2019-04-29T14:03:42.156Z,98773.48
2019-04-29T14:06:14.438Z,98761.42
2019-04-29T14:08:42.248Z,98760.15
2019-04-29T14:11:11.992Z,98762.27
2019-04-29T14:13:43.178Z,98751.79
2019-04-29T14:16:13.350Z,98747.23
2019-04-29T14:18:43.652Z,98749.11
2019-04-29T14:21:14.453Z,98749.39
2019-04-29T14:23:44.106Z,98743.16
2019-04-29T14:26:13.802Z,98743.17
2019-04-29T14:28:43.751Z,98744.82
2019-04-29T14:31:13.377Z,98740.22
2019-04-29T14:33:44.640Z,98736.75
2019-04-29T14:36:14.294Z,98739.20
2019-04-29T14:38:43.913Z,98742.14
2019-04-29T14:41:14.089Z,98736.76
2019-04-29T14:43:55.042Z,98732.19
2019-04-29T14:46:31.908Z,98730.86
2019-04-29T14:49:06.205Z,98738.41
2019-04-29T14:51:36.921Z,98735.17
2019-04-29T14:54:07.525Z,98731.95
2019-04-29T14:56:37.439Z,98728.16
2019-04-29T14:59:07.723Z,98732.77
2019-04-29T15:01:57.377Z,98734.09
2019-04-29T15:04:28.720Z,98735.16
2019-04-29T15:06:58.479Z,98730.33
2019-04-29T15:09:28.279Z,98736.53
2019-04-29T15:12:02.378Z,98734.66
2019-04-29T15:14:33.702Z,98734.12
2019-04-29T15:17:06.515Z,98736.81
2019-04-29T15:19:56.471Z,98731.65
2019-04-29T15:22:30.730Z,98742.14
2019-04-29T15:25:00.363Z,98739.69
2019-04-29T15:27:30.001Z,98742.38
2019-04-29T15:29:59.708Z,98740.78
2019-04-29T15:32:29.418Z,98746.94
2019-04-29T15:34:59.072Z,98743.11
2019-04-29T15:37:28.698Z,98742.03
2019-04-29T15:39:58.566Z,98738.22
2019-04-29T15:42:28.381Z,98737.17
2019-04-29T15:44:58.019Z,98740.39
2019-04-29T15:47:31.168Z,98737.96
2019-04-29T15:50:00.737Z,98738.22
2019-04-29T15:52:30.375Z,98745.52
2019-04-29T15:55:00.028Z,98743.59
2019-04-29T15:57:29.655Z,98742.25
2019-04-29T16:00:01.436Z,98736.88
2019-04-29T16:02:30.665Z,98735.27
2019-04-29T16:05:14.782Z,98737.37
2019-04-29T16:07:59.998Z,98739.23
2019-04-29T16:10:29.568Z,98733.59
2019-04-29T16:13:07.060Z,98730.08
2019-04-29T16:15:36.735Z,98735.75
2019-04-29T16:18:10.732Z,98735.41
2019-04-29T16:20:37.916Z,98730.73
2019-04-29T16:23:07.592Z,98735.08
2019-04-29T16:25:40.741Z,98731.33
2019-04-29T16:28:08.699Z,98730.98
2019-04-29T16:30:38.757Z,98736.63
2019-04-29T16:33:13.942Z,98738.10
2019-04-29T16:35:39.950Z,98733.80
2019-04-29T16:38:11.451Z,98733.50
2019-04-29T16:40:43.005Z,98742.82
2019-04-29T16:43:14.295Z,98743.84
2019-04-29T16:45:51.609Z,98747.00
2019-04-29T16:48:21.198Z,98748.06
2019-04-29T16:50:50.957Z,98743.95
2019-04-29T16:53:20.676Z,98747.78
2019-04-29T16:55:50.312Z,98745.04
2019-04-29T16:58:20.001Z,98745.75
2019-04-29T17:00:52.810Z,98741.72
2019-04-29T17:03:21.497Z,98741.94
2019-04-29T17:05:51.141Z,98742.13
2019-04-29T17:08:22.483Z,98742.03
2019-04-29T17:10:56.636Z,98748.13
2019-04-29T17:13:26.266Z,98765.03
2019-04-29T17:15:55.930Z,98758.97
2019-04-29T17:18:25.562Z,98769.23
2019-04-29T17:21:04.533Z,98773.03
2019-04-29T17:23:26.554Z,98776.45
2019-04-29T17:25:56.377Z,98777.84
2019-04-29T17:28:33.682Z,98786.70
2019-04-29T17:31:21.324Z,98787.47
2019-04-29T17:33:55.991Z,98788.02
2019-04-29T17:36:26.034Z,98788.52
2019-04-29T17:38:55.693Z,98787.64
2019-04-29T17:41:25.389Z,98797.30
2019-04-29T17:43:56.826Z,98790.95
2019-04-29T17:46:26.218Z,98799.00
2019-04-29T17:49:03.241Z,98794.59
2019-04-29T17:51:34.033Z,98798.65
2019-04-29T17:54:05.551Z,98800.80
2019-04-29T17:57:08.623Z,98800.71
2019-04-29T17:59:29.687Z,98807.41
2019-04-29T18:02:18.358Z,98807.09
2019-04-29T18:04:49.676Z,98809.17
2019-04-29T18:07:29.387Z,98810.78
2019-04-29T18:10:00.686Z,98812.81
2019-04-29T18:12:37.686Z,98820.72
2019-04-29T18:15:01.677Z,98822.81
2019-04-29T18:17:33.016Z,98817.56
2019-04-29T18:20:08.504Z,98825.88
2019-04-29T18:22:44.721Z,98830.34
2019-04-29T18:25:30.293Z,98837.30
2019-04-29T18:27:53.216Z,98832.36
2019-04-29T18:30:33.248Z,98831.87
2019-04-29T18:32:55.149Z,98834.22
2019-04-29T18:35:25.571Z,98833.36
2019-04-29T18:37:55.744Z,98840.91
2019-04-29T18:40:25.845Z,98840.58
2019-04-29T18:42:55.678Z,98838.12
2019-04-29T18:45:29.267Z,98845.30
2019-04-29T18:47:56.680Z,98847.72
2019-04-29T18:50:29.620Z,98852.30
2019-04-29T18:52:57.696Z,98848.76
2019-04-29T18:55:28.165Z,98854.16
2019-04-29T18:57:58.449Z,98853.27
2019-04-29T19:00:28.128Z,98859.66
2019-04-29T19:03:00.979Z,98864.13
2019-04-29T19:05:32.461Z,98868.05
2019-04-29T19:08:12.168Z,98874.80
2019-04-29T19:10:35.407Z,98875.47
2019-04-29T19:13:12.404Z,98880.23
2019-04-29T19:15:39.895Z,98882.65
2019-04-29T19:18:12.104Z,98877.87
2019-04-29T19:20:39.429Z,98882.63
2019-04-29T19:23:10.351Z,98879.43
2019-04-29T19:25:41.623Z,98879.91
2019-04-29T19:28:15.119Z,98874.81
2019-04-29T19:30:42.953Z,98873.77
2019-04-29T19:33:12.604Z,98870.80
2019-04-29T19:35:42.316Z,98879.87
2019-04-29T19:38:13.428Z,98875.67
2019-04-29T19:40:43.359Z,98866.69
2019-04-29T19:43:17.391Z,98868.12
2019-04-29T19:45:44.702Z,98870.41
2019-04-29T19:48:16.194Z,98870.48
2019-04-29T19:50:50.096Z,98870.27
2019-04-29T19:53:17.567Z,98869.83
2019-04-29T19:55:47.293Z,98869.73
2019-04-29T19:58:17.787Z,98860.89
2019-04-29T20:00:49.027Z,98861.48
2019-04-29T20:03:23.873Z,98861.00
2019-04-29T20:05:52.621Z,98856.83
2019-04-29T20:08:41.295Z,98855.23
2019-04-29T20:10:56.642Z,98854.84
2019-04-29T20:13:31.325Z,98852.16
2019-04-29T20:16:10.927Z,98851.69
2019-04-29T20:18:40.260Z,98854.17
2019-04-29T20:21:24.702Z,98852.86
2019-04-29T20:23:47.123Z,98858.11
2019-04-29T20:26:23.781Z,98854.27
2019-04-29T20:28:51.072Z,98844.53
2019-04-29T20:31:22.197Z,98835.17
2019-04-29T20:33:51.186Z,98839.83
2019-04-29T20:36:33.319Z,98832.55
2019-04-29T20:38:52.494Z,98840.79
2019-04-29T20:41:38.123Z,98835.45
2019-04-29T20:43:56.035Z,98832.67
2019-04-29T20:46:30.134Z,98832.10
2019-04-29T20:48:59.593Z,98821.50
2019-04-29T20:51:41.362Z,98823.76
2019-04-29T20:54:09.061Z,98815.76
2019-04-29T20:56:38.288Z,98821.88
2019-04-29T20:59:12.450Z,98812.61
2019-04-29T21:01:43.326Z,98821.52
2019-04-29T21:04:12.466Z,98817.77
2019-04-29T21:06:57.525Z,98809.59
2019-04-29T21:09:14.944Z,98812.81
2019-04-29T21:11:51.706Z,98810.61
2019-04-29T21:14:34.031Z,98804.96
2019-04-29T21:17:02.244Z,98800.12
2019-04-29T21:19:31.385Z,98810.41
2019-04-29T21:22:01.009Z,98808.72
2019-04-29T21:24:30.656Z,98816.22
2019-04-29T21:27:00.354Z,98813.77
2019-04-29T21:29:30.012Z,98810.36
2019-04-29T21:32:01.646Z,98813.87
2019-04-29T21:34:34.605Z,98807.02
2019-04-29T21:37:09.696Z,98803.48
2019-04-29T21:39:56.917Z,98807.50
2019-04-29T21:42:35.721Z,98800.44
2019-04-29T21:45:10.198Z,98792.52
2019-04-29T21:47:45.096Z,98793.09
2019-04-29T21:50:10.802Z,98781.63
2019-04-29T21:52:40.449Z,98785.02
2019-04-29T21:55:10.488Z,98780.55
2019-04-29T21:57:40.136Z,98779.74
2019-04-29T22:00:11.450Z,98778.08
2019-04-29T22:02:41.509Z,98784.72
2019-04-29T22:05:14.789Z,98782.36
2019-04-29T22:07:47.378Z,98775.92
2019-04-29T22:10:20.032Z,98781.58
2019-04-29T22:12:50.996Z,98775.52
2019-04-29T22:15:29.786Z,98779.73
2019-04-29T22:17:56.411Z,98779.83
2019-04-29T22:20:22.662Z,98772.64
2019-04-29T22:22:52.287Z,98777.56
2019-04-29T22:25:22.017Z,98767.61
2019-04-29T22:27:51.647Z,98768.89
2019-04-29T22:30:22.074Z,98768.33
2019-04-29T22:32:56.147Z,98766.42
2019-04-29T22:35:25.193Z,98769.20
2019-04-29T22:37:55.512Z,98772.22
2019-04-29T22:40:25.426Z,98775.00
2019-04-29T22:43:04.712Z,98775.52
2019-04-29T22:45:29.544Z,98768.43
2019-04-29T22:48:14.638Z,98765.76
2019-04-29T22:50:33.676Z,98768.89
2019-04-29T22:53:07.266Z,98770.95
2019-04-29T22:55:37.793Z,98765.09
2019-04-29T22:58:09.738Z,98768.33
2019-04-29T23:00:37.839Z,98765.09
2019-04-29T23:03:07.551Z,98761.02
2019-04-29T23:05:37.934Z,98758.97
2019-04-29T23:08:07.862Z,98750.24
2019-04-29T23:10:37.490Z,98756.30
2019-04-29T23:13:07.214Z,98757.69
2019-04-29T23:15:36.839Z,98760.01
2019-04-29T23:18:07.798Z,98753.42
2019-04-29T23:20:55.429Z,98742.13
2019-04-29T23:23:33.149Z,98744.28
2019-04-29T23:25:59.829Z,98738.53
2019-04-29T23:28:29.494Z,98739.27
2019-04-29T23:30:59.120Z,98738.80
2019-04-29T23:33:28.765Z,98736.00
2019-04-29T23:35:58.392Z,98730.72
2019-04-29T23:38:28.084Z,98730.81
2019-04-29T23:40:57.713Z,98725.64
2019-04-29T23:43:28.567Z,98726.73
2019-04-29T23:46:00.446Z,98719.73
2019-04-29T23:48:38.782Z,98718.74
2019-04-29T23:51:01.161Z,98721.86
2019-04-29T23:53:30.785Z,98715.78
2019-04-29T23:56:04.777Z,98714.72
2019-04-29T23:58:49.341Z,98710.95
